createdAt,value
2023-05-11T00:02:02.233Z,3.25
2023-05-11T00:04:29.271Z,3.80
2023-05-11T00:06:56.904Z,4.05
2023-05-11T00:09:23.907Z,3.80
2023-05-11T00:11:52.967Z,3.70
2023-05-11T00:14:20.332Z,3.63
2023-05-11T00:16:47.216Z,3.92
2023-05-11T00:19:14.466Z,3.80
2023-05-11T00:21:41.496Z,4.25
2023-05-11T00:24:09.063Z,3.80
2023-05-11T00:26:36.129Z,4.88
2023-05-11T00:29:03.192Z,3.85
2023-05-11T00:31:30.650Z,4.03
2023-05-11T00:33:57.752Z,3.83
2023-05-11T00:36:24.789Z,3.95
2023-05-11T00:38:53.005Z,3.50
2023-05-11T00:41:20.047Z,3.33
2023-05-11T00:43:47.152Z,3.63
2023-05-11T00:46:14.188Z,3.70
2023-05-11T00:48:41.252Z,3.63
2023-05-11T00:51:08.324Z,3.60
2023-05-11T00:53:35.424Z,3.90
2023-05-11T00:56:03.859Z,3.97
2023-05-11T00:58:31.683Z,3.97
2023-05-11T01:00:58.776Z,3.80
2023-05-11T01:03:26.714Z,4.03
2023-05-11T01:06:22.077Z,3.85
2023-05-11T01:08:57.055Z,3.50
2023-05-11T01:11:31.381Z,3.22
2023-05-11T01:14:11.824Z,2.75
2023-05-11T01:16:42.315Z,2.95
2023-05-11T01:19:41.644Z,4.25
2023-05-11T01:22:34.164Z,3.67
2023-05-11T01:25:12.726Z,3.00
2023-05-11T01:27:56.095Z,2.80
2023-05-11T01:30:26.455Z,3.33
2023-05-11T01:32:59.226Z,2.95
2023-05-11T01:35:29.711Z,3.60
2023-05-11T01:38:00.165Z,3.15
2023-05-11T01:40:32.350Z,3.58
2023-05-11T01:43:05.344Z,4.00
2023-05-11T01:45:36.558Z,2.87
2023-05-11T01:48:09.975Z,3.30
2023-05-11T01:50:39.089Z,3.53
2023-05-11T01:53:07.842Z,2.80
2023-05-11T01:55:38.449Z,2.80
2023-05-11T01:58:09.035Z,3.70
2023-05-11T02:00:36.698Z,3.40
2023-05-11T02:03:07.261Z,2.90
2023-05-11T02:05:35.237Z,2.13
2023-05-11T02:08:06.130Z,1.85
2023-05-11T02:10:34.492Z,2.55
2023-05-11T02:13:05.471Z,3.15
2023-05-11T02:15:36.078Z,2.40
2023-05-11T02:18:05.356Z,2.53
2023-05-11T02:20:35.036Z,2.55
2023-05-11T02:23:03.616Z,2.53
2023-05-11T02:25:32.059Z,1.95
2023-05-11T02:27:59.057Z,2.80
2023-05-11T02:30:28.926Z,2.30
2023-05-11T02:32:58.781Z,2.38
2023-05-11T02:35:30.580Z,2.40
2023-05-11T02:38:01.809Z,2.45
2023-05-11T02:40:34.654Z,2.83
2023-05-11T02:43:09.619Z,2.75
2023-05-11T02:45:41.432Z,2.15
2023-05-11T02:48:15.260Z,2.45
2023-05-11T02:50:43.748Z,2.65
2023-05-11T02:53:15.900Z,2.10
2023-05-11T02:55:44.273Z,2.97
2023-05-11T02:58:11.766Z,2.00
2023-05-11T03:00:42.529Z,1.92
2023-05-11T03:03:09.782Z,2.45
2023-05-11T03:05:36.891Z,2.50
2023-05-11T03:08:04.223Z,2.55
2023-05-11T03:10:31.795Z,2.50
2023-05-11T03:12:59.362Z,2.67
2023-05-11T03:15:28.114Z,4.55
2023-05-11T03:17:56.819Z,2.92
2023-05-11T03:20:24.212Z,6.05
2023-05-11T03:22:52.809Z,3.03
2023-05-11T03:25:21.089Z,3.10
2023-05-11T03:27:50.879Z,4.35
2023-05-11T03:30:20.378Z,3.55
2023-05-11T03:32:50.739Z,4.93
2023-05-11T03:35:18.011Z,3.05
2023-05-11T03:37:45.962Z,2.42
2023-05-11T03:40:15.840Z,3.30
2023-05-11T03:42:54.748Z,3.45
2023-05-11T03:45:23.819Z,2.58
2023-05-11T03:47:52.499Z,2.08
2023-05-11T03:50:20.878Z,1.92
2023-05-11T03:52:49.332Z,3.42
2023-05-11T03:55:16.649Z,2.13
2023-05-11T03:57:43.673Z,1.80
2023-05-11T04:00:11.920Z,2.50
2023-05-11T04:05:13.691Z,5.05
2023-05-11T04:07:42.991Z,1.98
2023-05-11T04:10:10.143Z,2.53
2023-05-11T04:12:37.031Z,2.40
2023-05-11T04:15:04.759Z,2.72
2023-05-11T04:17:31.741Z,4.97
2023-05-11T04:19:58.869Z,2.50
2023-05-11T04:22:25.834Z,2.85
2023-05-11T04:24:52.863Z,5.50
2023-05-11T04:27:19.832Z,2.90
2023-05-11T04:29:46.817Z,2.50
2023-05-11T04:32:13.836Z,4.22
2023-05-11T04:34:41.300Z,1.92
2023-05-11T04:37:09.611Z,2.45
2023-05-11T04:39:39.138Z,2.60
2023-05-11T04:42:06.280Z,3.05
2023-05-11T04:44:33.706Z,2.95
2023-05-11T04:47:00.867Z,2.40
2023-05-11T04:49:27.960Z,1.80
2023-05-11T04:51:55.889Z,3.13
2023-05-11T04:54:23.148Z,2.63
2023-05-11T04:56:50.183Z,2.35
2023-05-11T04:59:17.257Z,2.72
2023-05-11T05:01:44.599Z,2.10
2023-05-11T05:04:11.608Z,7.55
2023-05-11T05:06:38.782Z,2.33
2023-05-11T05:09:05.807Z,3.75
2023-05-11T05:11:32.860Z,5.88
2023-05-11T05:13:59.908Z,2.03
2023-05-11T05:16:27.072Z,3.90
2023-05-11T05:18:54.320Z,2.88
2023-05-11T05:21:21.551Z,3.35
2023-05-11T05:23:49.083Z,3.45
2023-05-11T05:26:16.331Z,4.40
2023-05-11T05:28:44.682Z,2.45
2023-05-11T05:31:11.706Z,2.15
2023-05-11T05:33:38.969Z,2.05
2023-05-11T05:36:06.348Z,2.28
2023-05-11T05:38:33.426Z,1.80
2023-05-11T05:41:02.509Z,2.10
2023-05-11T05:43:32.568Z,1.52
2023-05-11T05:46:00.578Z,2.20
2023-05-11T05:48:29.612Z,2.55
2023-05-11T05:50:56.697Z,1.63
2023-05-11T05:53:23.806Z,2.00
2023-05-11T05:55:50.835Z,1.65
2023-05-11T05:58:18.186Z,1.48
2023-05-11T06:00:45.589Z,1.10
2023-05-11T06:03:13.350Z,1.13
2023-05-11T06:05:41.320Z,1.38
2023-05-11T06:08:10.935Z,1.45
2023-05-11T06:10:39.587Z,1.55
2023-05-11T06:13:09.557Z,1.08
2023-05-11T06:15:38.899Z,1.33
2023-05-11T06:18:15.970Z,1.95
2023-05-11T06:20:44.409Z,1.98
2023-05-11T06:23:12.636Z,1.65
2023-05-11T06:25:42.557Z,1.50
2023-05-11T06:28:10.058Z,1.17
2023-05-11T06:30:37.896Z,1.33
2023-05-11T06:33:07.392Z,2.20
2023-05-11T06:35:37.714Z,1.85
2023-05-11T06:38:07.334Z,1.70
2023-05-11T06:40:36.106Z,1.33
2023-05-11T06:43:03.253Z,1.48
2023-05-11T06:45:45.548Z,1.40
2023-05-11T06:48:13.011Z,1.80
2023-05-11T06:50:40.696Z,1.25
2023-05-11T06:53:08.312Z,1.70
2023-05-11T06:55:35.558Z,1.08
2023-05-11T06:58:02.557Z,1.23
2023-05-11T07:00:29.644Z,1.52
2023-05-11T07:02:56.661Z,2.35
2023-05-11T07:05:24.023Z,1.80
2023-05-11T07:07:51.455Z,1.20
2023-05-11T07:10:18.803Z,1.38
2023-05-11T07:12:45.988Z,1.50
2023-05-11T07:15:13.088Z,1.88
2023-05-11T07:17:40.216Z,1.40
2023-05-11T07:20:08.102Z,1.52
2023-05-11T07:22:35.066Z,1.25
2023-05-11T07:25:02.016Z,1.75
2023-05-11T07:27:29.121Z,1.10
2023-05-11T07:29:56.299Z,1.30
2023-05-11T07:32:23.444Z,1.42
2023-05-11T07:34:50.507Z,1.63
2023-05-11T07:37:17.567Z,2.88
2023-05-11T07:39:44.634Z,1.73
2023-05-11T07:42:11.738Z,1.50
2023-05-11T07:44:40.996Z,1.80
2023-05-11T07:47:08.080Z,1.30
2023-05-11T07:49:43.081Z,1.25
2023-05-11T07:52:11.875Z,1.05
2023-05-11T07:54:41.345Z,1.42
2023-05-11T07:57:08.616Z,1.52
2023-05-11T07:59:36.208Z,1.30
2023-05-11T08:02:04.860Z,1.40
2023-05-11T08:04:31.956Z,1.35
2023-05-11T08:06:59.049Z,1.38
2023-05-11T08:09:26.031Z,1.50
2023-05-11T08:11:54.228Z,1.60
2023-05-11T08:14:21.427Z,1.60
2023-05-11T08:16:49.895Z,1.35
2023-05-11T08:19:16.928Z,1.60
2023-05-11T08:21:45.090Z,1.73
2023-05-11T08:24:12.450Z,1.58
2023-05-11T08:26:39.494Z,1.70
2023-05-11T08:29:06.453Z,1.60
2023-05-11T08:31:33.563Z,1.00
2023-05-11T08:34:00.778Z,1.48
2023-05-11T08:36:27.984Z,1.40
2023-05-11T08:38:59.062Z,1.30
2023-05-11T08:41:26.325Z,1.60
2023-05-11T08:43:55.469Z,1.65
2023-05-11T08:46:24.593Z,1.65
2023-05-11T08:48:51.913Z,1.38
2023-05-11T08:51:19.129Z,1.30
2023-05-11T08:53:46.087Z,1.40
2023-05-11T08:56:13.821Z,1.63
2023-05-11T08:58:41.847Z,2.20
2023-05-11T09:01:10.862Z,1.80
2023-05-11T09:03:40.340Z,3.38
2023-05-11T09:06:08.184Z,1.85
2023-05-11T09:08:36.680Z,1.85
2023-05-11T09:11:04.263Z,1.50
2023-05-11T09:13:32.127Z,1.60
2023-05-11T09:15:59.498Z,1.30
2023-05-11T09:18:27.189Z,1.77
2023-05-11T09:20:54.245Z,1.60
2023-05-11T09:23:28.167Z,1.25
2023-05-11T09:25:55.245Z,21.60
2023-05-11T09:28:25.748Z,1.48
2023-05-11T09:30:54.000Z,1.10
2023-05-11T09:33:25.960Z,1.20
2023-05-11T09:35:53.336Z,1.10
2023-05-11T09:38:20.907Z,1.10
2023-05-11T09:40:52.871Z,1.13
2023-05-11T09:43:29.229Z,1.50
2023-05-11T09:45:58.199Z,1.48
2023-05-11T09:48:28.262Z,1.55
2023-05-11T09:51:08.489Z,1.30
2023-05-11T09:53:44.132Z,1.40
2023-05-11T09:56:12.709Z,1.27
2023-05-11T09:58:57.559Z,0.90
2023-05-11T10:01:32.957Z,1.85
2023-05-11T10:04:17.804Z,1.13
2023-05-11T10:06:53.705Z,1.92
2023-05-11T10:09:25.732Z,1.15
2023-05-11T10:11:53.846Z,1.02
2023-05-11T10:14:22.413Z,1.20
2023-05-11T10:16:50.193Z,1.20
2023-05-11T10:19:18.782Z,1.02
2023-05-11T10:21:46.489Z,1.10
2023-05-11T10:24:14.616Z,1.55
2023-05-11T10:26:42.773Z,1.35
2023-05-11T10:29:10.438Z,1.20
2023-05-11T10:31:37.917Z,2.10
2023-05-11T10:34:05.982Z,1.73
2023-05-11T10:36:34.052Z,13.40
2023-05-11T10:39:01.229Z,1.33
2023-05-11T10:42:11.989Z,1.17
2023-05-11T10:44:57.765Z,1.65
2023-05-11T10:47:31.452Z,1.00
2023-05-11T10:50:34.410Z,1.33
2023-05-11T10:53:26.235Z,1.25
2023-05-11T10:56:30.393Z,1.52
2023-05-11T10:58:57.445Z,9.82
2023-05-11T11:01:46.606Z,2.58
2023-05-11T11:04:14.417Z,2.78
2023-05-11T11:06:44.018Z,2.25
2023-05-11T11:09:15.913Z,1.48
2023-05-11T11:11:50.821Z,1.38
2023-05-11T11:14:19.392Z,1.92
2023-05-11T11:17:17.400Z,1.45
2023-05-11T11:19:44.513Z,3.28
2023-05-11T11:22:41.328Z,1.00
2023-05-11T11:25:10.056Z,1.35
2023-05-11T11:27:46.231Z,0.85
2023-05-11T11:30:19.280Z,1.20
2023-05-11T11:32:52.284Z,1.40
2023-05-11T11:35:41.749Z,1.40
2023-05-11T11:38:09.022Z,1.20
2023-05-11T11:40:50.747Z,1.20
2023-05-11T11:43:24.770Z,1.17
2023-05-11T11:45:54.738Z,1.17
2023-05-11T11:48:31.591Z,1.13
2023-05-11T11:51:03.464Z,1.50
2023-05-11T11:53:36.557Z,1.30
2023-05-11T11:56:15.543Z,1.05
2023-05-11T11:58:45.240Z,1.52
2023-05-11T12:01:14.060Z,1.38
2023-05-11T12:03:43.625Z,1.20
2023-05-11T12:06:12.369Z,1.30
2023-05-11T12:08:41.167Z,1.40
2023-05-11T12:11:08.648Z,0.95
2023-05-11T12:13:36.158Z,1.30
2023-05-11T12:16:13.398Z,1.65
2023-05-11T12:18:41.966Z,1.02
2023-05-11T12:21:22.508Z,1.20
2023-05-11T12:23:57.185Z,1.08
2023-05-11T12:26:27.619Z,1.45
2023-05-11T12:29:18.783Z,1.05
2023-05-11T12:31:46.996Z,1.88
2023-05-11T12:34:19.086Z,1.02
2023-05-11T12:36:47.718Z,1.00
2023-05-11T12:39:28.425Z,1.17
2023-05-11T12:41:56.780Z,1.08
2023-05-11T12:44:26.761Z,1.70
2023-05-11T12:46:54.579Z,1.13
2023-05-11T12:49:26.689Z,1.35
2023-05-11T12:52:01.175Z,1.58
2023-05-11T12:54:47.333Z,0.97
2023-05-11T12:57:34.045Z,1.60
2023-05-11T13:00:15.746Z,1.50
2023-05-11T13:02:50.042Z,2.03
2023-05-11T13:05:19.442Z,1.45
2023-05-11T13:07:47.525Z,1.60
2023-05-11T13:10:14.536Z,1.35
2023-05-11T13:12:51.993Z,1.20
2023-05-11T13:15:20.993Z,1.52
2023-05-11T13:17:55.376Z,1.13
2023-05-11T13:20:27.907Z,1.52
2023-05-11T13:23:08.083Z,2.22
2023-05-11T13:25:50.921Z,1.55
2023-05-11T13:28:22.173Z,1.98
2023-05-11T13:30:51.347Z,1.45
2023-05-11T13:33:18.928Z,1.77
2023-05-11T13:35:46.422Z,1.52
2023-05-11T13:38:13.472Z,2.00
2023-05-11T13:40:40.698Z,1.98
2023-05-11T13:43:07.814Z,1.77
2023-05-11T13:45:36.581Z,1.95
2023-05-11T13:48:03.887Z,2.78
2023-05-11T13:50:32.396Z,1.50
2023-05-11T13:52:59.605Z,1.70
2023-05-11T13:55:26.937Z,2.20
2023-05-11T13:57:53.911Z,1.80
2023-05-11T14:00:21.428Z,2.05
2023-05-11T14:02:50.741Z,2.08
2023-05-11T14:05:18.443Z,1.92
2023-05-11T14:07:48.248Z,3.35
2023-05-11T14:10:17.348Z,2.30
2023-05-11T14:12:44.967Z,1.95
2023-05-11T14:15:12.212Z,1.50
2023-05-11T14:17:39.462Z,2.08
2023-05-11T14:20:07.411Z,2.00
2023-05-11T14:22:34.391Z,3.00
2023-05-11T14:25:02.167Z,1.90
2023-05-11T14:27:29.333Z,1.98
2023-05-11T14:29:56.200Z,1.60
2023-05-11T14:32:23.331Z,1.70
2023-05-11T14:34:50.284Z,2.67
2023-05-11T14:37:17.282Z,1.70
2023-05-11T14:39:44.439Z,2.05
2023-05-11T14:42:11.500Z,2.00
2023-05-11T14:44:38.490Z,2.00
2023-05-11T14:47:07.728Z,2.00
2023-05-11T14:49:34.806Z,3.25
2023-05-11T14:52:02.153Z,1.88
2023-05-11T14:54:29.086Z,2.50
2023-05-11T14:56:58.240Z,2.17
2023-05-11T14:59:26.499Z,2.30
2023-05-11T15:01:53.557Z,2.58
2023-05-11T15:04:20.791Z,6.20
2023-05-11T15:06:48.589Z,1.80
2023-05-11T15:09:15.652Z,2.70
2023-05-11T15:11:42.645Z,11.23
2023-05-11T15:14:09.975Z,3.28
2023-05-11T15:16:38.101Z,2.67
2023-05-11T15:19:06.167Z,2.33
2023-05-11T15:21:33.811Z,2.50
2023-05-11T15:24:01.027Z,1.80
2023-05-11T15:26:28.264Z,2.53
2023-05-11T15:28:55.401Z,2.40
2023-05-11T15:31:22.654Z,2.00
2023-05-11T15:33:49.943Z,2.13
2023-05-11T15:36:17.153Z,2.17
2023-05-11T15:38:44.140Z,3.72
2023-05-11T15:41:11.136Z,3.05
2023-05-11T15:43:38.049Z,2.65
2023-05-11T15:46:05.878Z,4.22
2023-05-11T15:48:33.348Z,3.22
2023-05-11T15:51:01.278Z,3.45
2023-05-11T15:53:28.900Z,4.53
2023-05-11T15:55:57.172Z,6.20
2023-05-11T15:58:24.361Z,5.88
2023-05-11T16:00:51.542Z,6.53
2023-05-11T16:03:20.127Z,6.75
2023-05-11T16:05:47.457Z,6.00
2023-05-11T16:08:14.782Z,6.78
2023-05-11T16:10:41.820Z,7.32
2023-05-11T16:13:09.691Z,6.88
2023-05-11T16:15:37.051Z,7.70
2023-05-11T16:18:11.978Z,6.00
2023-05-11T16:20:39.136Z,6.30
2023-05-11T16:23:06.193Z,6.43
2023-05-11T16:25:33.211Z,7.00
2023-05-11T16:28:00.183Z,8.55
2023-05-11T16:30:27.429Z,7.93
2023-05-11T16:32:54.893Z,7.20
2023-05-11T16:35:22.057Z,9.88
2023-05-11T16:37:49.160Z,8.57
2023-05-11T16:40:21.416Z,9.10
2023-05-11T16:42:49.185Z,9.88
2023-05-11T16:45:16.762Z,10.32
2023-05-11T16:47:46.970Z,10.05
2023-05-11T16:50:16.239Z,10.73
2023-05-11T16:52:43.767Z,11.13
2023-05-11T16:55:11.228Z,9.13
2023-05-11T16:57:38.353Z,10.05
2023-05-11T17:00:06.569Z,9.93
2023-05-11T17:02:33.980Z,11.02
2023-05-11T17:05:01.155Z,8.77
2023-05-11T17:07:28.276Z,8.35
2023-05-11T17:09:59.034Z,8.30
2023-05-11T17:12:26.168Z,5.97
2023-05-11T17:14:53.228Z,7.78
2023-05-11T17:17:20.271Z,8.45
2023-05-11T17:19:47.332Z,9.63
2023-05-11T17:22:14.546Z,7.95
2023-05-11T17:24:41.679Z,6.10
2023-05-11T17:27:08.718Z,6.00
2023-05-11T17:29:35.823Z,7.38
2023-05-11T17:32:03.548Z,7.82
2023-05-11T17:34:31.288Z,9.15
2023-05-11T17:36:58.704Z,8.80
2023-05-11T17:39:25.799Z,7.50
2023-05-11T17:41:52.790Z,7.35
2023-05-11T17:44:19.710Z,8.20
2023-05-11T17:46:46.849Z,8.15
2023-05-11T17:49:13.939Z,8.02
2023-05-11T17:51:40.917Z,8.20
2023-05-11T17:54:07.884Z,7.88
2023-05-11T17:56:34.878Z,7.97
2023-05-11T17:59:01.929Z,7.18
2023-05-11T18:01:28.999Z,7.65
2023-05-11T18:03:59.108Z,7.30
2023-05-11T18:06:36.046Z,6.72
2023-05-11T18:09:05.128Z,7.90
2023-05-11T18:11:32.613Z,8.00
2023-05-11T18:13:59.602Z,7.13
2023-05-11T18:16:26.950Z,6.63
2023-05-11T18:18:54.126Z,6.90
2023-05-11T18:21:21.166Z,6.65
2023-05-11T18:23:48.226Z,6.13
2023-05-11T18:26:16.377Z,6.80
2023-05-11T18:28:43.436Z,6.18
2023-05-11T18:31:10.550Z,6.05
2023-05-11T18:33:45.052Z,5.97
2023-05-11T18:36:12.271Z,6.30
2023-05-11T18:38:39.305Z,5.70
2023-05-11T18:41:08.118Z,5.90
2023-05-11T18:43:35.133Z,5.40
2023-05-11T18:46:07.135Z,6.32
2023-05-11T18:48:34.195Z,5.93
2023-05-11T18:51:01.260Z,5.32
2023-05-11T18:53:28.270Z,4.90
2023-05-11T18:55:56.308Z,5.07
2023-05-11T18:58:23.806Z,6.20
2023-05-11T19:00:51.654Z,5.35
2023-05-11T19:03:20.823Z,5.63
2023-05-11T19:05:48.955Z,6.03
2023-05-11T19:08:16.625Z,4.80
2023-05-11T19:10:45.572Z,4.45
2023-05-11T19:13:15.819Z,4.72
2023-05-11T19:15:42.963Z,6.20
2023-05-11T19:18:10.051Z,5.15
2023-05-11T19:20:39.212Z,5.03
2023-05-11T19:23:06.470Z,4.65
2023-05-11T19:25:33.642Z,6.60
2023-05-11T19:28:00.670Z,4.93
2023-05-11T19:30:27.656Z,11.98
2023-05-11T19:32:54.732Z,7.65
2023-05-11T19:35:21.845Z,8.80
2023-05-11T19:37:48.991Z,5.45
2023-05-11T19:40:44.513Z,5.70
2023-05-11T19:43:08.225Z,4.80
2023-05-11T19:45:37.419Z,5.13
2023-05-11T19:48:04.504Z,5.63
2023-05-11T19:50:31.580Z,5.57
2023-05-11T19:52:58.578Z,5.05
2023-05-11T19:55:25.629Z,5.72
2023-05-11T19:57:52.764Z,6.60
2023-05-11T20:00:23.018Z,6.35
2023-05-11T20:02:50.013Z,5.03
2023-05-11T20:05:17.537Z,6.38
2023-05-11T20:07:44.985Z,5.20
2023-05-11T20:10:12.680Z,5.28
2023-05-11T20:12:40.235Z,5.53
2023-05-11T20:15:08.900Z,5.47
2023-05-11T20:17:37.624Z,6.43
2023-05-11T20:20:05.087Z,5.18
2023-05-11T20:22:32.441Z,4.20
2023-05-11T20:24:59.478Z,5.47
2023-05-11T20:27:30.737Z,5.82
2023-05-11T20:29:57.990Z,5.93
2023-05-11T20:32:25.276Z,5.25
2023-05-11T20:34:52.448Z,5.20
2023-05-11T20:37:19.599Z,7.10
2023-05-11T20:39:47.018Z,5.40
2023-05-11T20:42:14.146Z,5.07
2023-05-11T20:44:41.161Z,5.20
2023-05-11T20:47:09.092Z,6.03
2023-05-11T20:49:39.355Z,4.78
2023-05-11T20:52:08.022Z,5.32
2023-05-11T20:54:36.004Z,6.68
2023-05-11T20:57:04.418Z,4.97
2023-05-11T21:02:02.377Z,5.60
2023-05-11T21:04:31.265Z,5.10
2023-05-11T21:06:58.628Z,4.65
2023-05-11T21:09:25.753Z,5.68
2023-05-11T21:11:53.024Z,5.50
2023-05-11T21:14:20.492Z,7.55
2023-05-11T21:16:48.150Z,4.88
2023-05-11T21:19:18.718Z,6.07
2023-05-11T21:21:47.165Z,5.10
2023-05-11T21:24:14.205Z,5.30
2023-05-11T21:26:41.552Z,5.85
2023-05-11T21:29:08.746Z,5.47
2023-05-11T21:31:35.753Z,6.32
2023-05-11T21:34:02.781Z,6.10
2023-05-11T21:36:29.777Z,4.97
2023-05-11T21:38:56.867Z,4.95
2023-05-11T21:41:23.878Z,5.07
2023-05-11T21:43:50.960Z,5.65
2023-05-11T21:46:17.937Z,6.65
2023-05-11T21:48:44.968Z,5.28
2023-05-11T21:51:13.329Z,5.65
2023-05-11T21:53:40.681Z,6.13
2023-05-11T21:56:10.029Z,6.15
2023-05-11T21:58:37.487Z,5.25
2023-05-11T22:01:04.808Z,5.10
2023-05-11T22:03:32.508Z,5.97
2023-05-11T22:05:59.582Z,6.25
2023-05-11T22:08:26.651Z,5.22
2023-05-11T22:10:53.730Z,4.95
2023-05-11T22:13:20.811Z,5.93
2023-05-11T22:15:47.753Z,5.70
2023-05-11T22:18:14.816Z,5.30
2023-05-11T22:20:41.776Z,5.57
2023-05-11T22:23:08.782Z,5.53
2023-05-11T22:25:35.962Z,5.50
2023-05-11T22:28:02.997Z,5.57
2023-05-11T22:30:30.123Z,5.28
2023-05-11T22:32:57.218Z,5.22
2023-05-11T22:35:24.367Z,6.47
2023-05-11T22:37:51.502Z,5.53
2023-05-11T22:40:19.041Z,5.75
2023-05-11T22:42:46.154Z,5.72
2023-05-11T22:45:13.237Z,5.00
2023-05-11T22:47:40.233Z,5.43
2023-05-11T22:50:11.736Z,5.20
2023-05-11T22:52:39.268Z,4.97
2023-05-11T22:55:07.064Z,6.13
2023-05-11T22:57:34.418Z,6.00
2023-05-11T23:00:01.366Z,5.28
2023-05-11T23:02:30.216Z,5.18
2023-05-11T23:04:57.788Z,5.65
2023-05-11T23:07:24.841Z,6.20
2023-05-11T23:09:53.009Z,6.00
2023-05-11T23:12:20.124Z,6.00
2023-05-11T23:14:47.317Z,5.47
2023-05-11T23:17:14.478Z,6.28
2023-05-11T23:19:42.004Z,6.47
2023-05-11T23:22:08.999Z,5.80
2023-05-11T23:24:36.294Z,6.28
2023-05-11T23:27:03.671Z,5.72
2023-05-11T23:29:30.865Z,5.97
2023-05-11T23:31:57.988Z,5.80
2023-05-11T23:34:25.139Z,5.50
2023-05-11T23:36:52.211Z,5.93
2023-05-11T23:39:19.390Z,5.68
2023-05-11T23:41:46.416Z,5.63
2023-05-11T23:44:13.400Z,5.60
2023-05-11T23:46:40.451Z,6.05
2023-05-11T23:49:07.886Z,6.20
2023-05-11T23:51:37.346Z,7.07
2023-05-11T23:54:04.458Z,6.25
2023-05-11T23:56:31.408Z,6.03
2023-05-11T23:58:58.350Z,7.15
